Upper Fairmount, Maryland
Current Conditions -  °F | °C
As of 8:54 AM on Saturday 01 Nov 2014 (Local Time) from KWAL Reporting Station
Overcast Overcast  
Wind Chill: 51°   Ceiling: 1100
Heat Index: 51°   Visibility: 10mi
Dew Point: 48°   Wind: 17mph
Humidity: 89%   Direction: 20°NNE
Pressure: 29.67"   Gusts: 26mph
Location:  38.1°N, 75.79°W
Report Text: KWAL 011254Z AUTO 02015G23KT 10SM OVC011 11/09 A2967 RMK AO2 SLP044 T01060089
Loading
Personal Weather Stations






























Interactive Weather Map
Tropical Storm Tracking
New forecast layout! Learn more

10-Day Weather Forecast

Advertisements
Track Severe Weather on mobile